sensor_id;sensor_type;location;lat;lon;timestamp;P1;durP1;ratioP1;P2;durP2;ratioP2
39956;SDS011;48483;44.640;7.494;2022-12-07T00:01:46;13.85;;;11.57;;
39956;SDS011;48483;44.640;7.494;2022-12-07T00:04:13;16.33;;;12.30;;
39956;SDS011;48483;44.640;7.494;2022-12-07T00:06:41;15.48;;;12.00;;
39956;SDS011;48483;44.640;7.494;2022-12-07T00:09:10;17.83;;;12.48;;
39956;SDS011;48483;44.640;7.494;2022-12-07T00:11:39;15.95;;;12.95;;
39956;SDS011;48483;44.640;7.494;2022-12-07T00:14:09;19.20;;;13.82;;
39956;SDS011;48483;44.640;7.494;2022-12-07T00:16:38;22.40;;;15.02;;
39956;SDS011;48483;44.640;7.494;2022-12-07T00:19:05;21.27;;;14.70;;
39956;SDS011;48483;44.640;7.494;2022-12-07T00:21:32;22.50;;;15.00;;
39956;SDS011;48483;44.640;7.494;2022-12-07T00:24:00;18.42;;;14.25;;
39956;SDS011;48483;44.640;7.494;2022-12-07T00:26:28;18.02;;;13.82;;
39956;SDS011;48483;44.640;7.494;2022-12-07T00:29:02;18.75;;;14.25;;
39956;SDS011;48483;44.640;7.494;2022-12-07T00:31:31;18.85;;;13.73;;
39956;SDS011;48483;44.640;7.494;2022-12-07T00:34:00;20.20;;;13.07;;
39956;SDS011;48483;44.640;7.494;2022-12-07T00:36:27;16.48;;;12.40;;
39956;SDS011;48483;44.640;7.494;2022-12-07T00:38:54;16.42;;;13.05;;
39956;SDS011;48483;44.640;7.494;2022-12-07T00:41:24;17.55;;;12.55;;
39956;SDS011;48483;44.640;7.494;2022-12-07T00:43:51;16.63;;;11.93;;
39956;SDS011;48483;44.640;7.494;2022-12-07T00:46:20;15.52;;;11.82;;
39956;SDS011;48483;44.640;7.494;2022-12-07T00:48:48;16.40;;;11.88;;
39956;SDS011;48483;44.640;7.494;2022-12-07T00:51:17;15.40;;;11.73;;
39956;SDS011;48483;44.640;7.494;2022-12-07T00:53:45;14.05;;;10.85;;
39956;SDS011;48483;44.640;7.494;2022-12-07T00:56:13;15.90;;;12.05;;
39956;SDS011;48483;44.640;7.494;2022-12-07T00:58:41;14.95;;;11.73;;
39956;SDS011;48483;44.640;7.494;2022-12-07T01:01:08;14.13;;;11.25;;
39956;SDS011;48483;44.640;7.494;2022-12-07T01:03:37;14.52;;;11.70;;
39956;SDS011;48483;44.640;7.494;2022-12-07T01:06:04;15.48;;;11.13;;
39956;SDS011;48483;44.640;7.494;2022-12-07T01:08:31;15.35;;;11.48;;
39956;SDS011;48483;44.640;7.494;2022-12-07T01:10:58;15.05;;;12.00;;
39956;SDS011;48483;44.640;7.494;2022-12-07T01:13:26;13.82;;;11.32;;
39956;SDS011;48483;44.640;7.494;2022-12-07T01:15:56;16.15;;;10.68;;
39956;SDS011;48483;44.640;7.494;2022-12-07T01:18:24;15.25;;;11.43;;
39956;SDS011;48483;44.640;7.494;2022-12-07T01:20:58;12.00;;;9.48;;
39956;SDS011;48483;44.640;7.494;2022-12-07T01:23:26;13.60;;;10.40;;
39956;SDS011;48483;44.640;7.494;2022-12-07T01:25:54;13.43;;;10.70;;
39956;SDS011;48483;44.640;7.494;2022-12-07T01:28:21;14.02;;;11.35;;
39956;SDS011;48483;44.640;7.494;2022-12-07T01:30:54;13.55;;;10.40;;
39956;SDS011;48483;44.640;7.494;2022-12-07T01:33:21;13.60;;;10.32;;
39956;SDS011;48483;44.640;7.494;2022-12-07T01:35:48;13.05;;;9.73;;
39956;SDS011;48483;44.640;7.494;2022-12-07T01:38:16;13.73;;;10.85;;
39956;SDS011;48483;44.640;7.494;2022-12-07T01:40:43;14.13;;;10.13;;
39956;SDS011;48483;44.640;7.494;2022-12-07T01:43:13;12.43;;;10.40;;
39956;SDS011;48483;44.640;7.494;2022-12-07T01:45:42;12.63;;;10.10;;
39956;SDS011;48483;44.640;7.494;2022-12-07T01:48:09;16.35;;;11.40;;
39956;SDS011;48483;44.640;7.494;2022-12-07T01:50:39;13.27;;;10.15;;
39956;SDS011;48483;44.640;7.494;2022-12-07T01:53:08;13.73;;;10.05;;
39956;SDS011;48483;44.640;7.494;2022-12-07T01:55:38;13.80;;;10.07;;
39956;SDS011;48483;44.640;7.494;2022-12-07T01:58:10;12.25;;;9.88;;
39956;SDS011;48483;44.640;7.494;2022-12-07T02:00:38;11.68;;;9.45;;
39956;SDS011;48483;44.640;7.494;2022-12-07T02:03:07;13.50;;;10.38;;
39956;SDS011;48483;44.640;7.494;2022-12-07T02:05:37;15.57;;;10.90;;
39956;SDS011;48483;44.640;7.494;2022-12-07T02:08:06;13.63;;;10.05;;
39956;SDS011;48483;44.640;7.494;2022-12-07T02:10:34;13.35;;;10.40;;
39956;SDS011;48483;44.640;7.494;2022-12-07T02:13:03;15.57;;;11.20;;
39956;SDS011;48483;44.640;7.494;2022-12-07T02:15:45;13.80;;;9.90;;
39956;SDS011;48483;44.640;7.494;2022-12-07T02:18:22;14.23;;;11.82;;
39956;SDS011;48483;44.640;7.494;2022-12-07T02:20:56;12.15;;;8.80;;
39956;SDS011;48483;44.640;7.494;2022-12-07T02:23:50;11.88;;;8.85;;
39956;SDS011;48483;44.640;7.494;2022-12-07T02:26:44;12.05;;;8.63;;
39956;SDS011;48483;44.640;7.494;2022-12-07T02:29:37;9.65;;;7.45;;
39956;SDS011;48483;44.640;7.494;2022-12-07T02:32:08;9.15;;;7.72;;
39956;SDS011;48483;44.640;7.494;2022-12-07T02:34:42;9.40;;;6.53;;
39956;SDS011;48483;44.640;7.494;2022-12-07T02:37:17;9.68;;;7.03;;
39956;SDS011;48483;44.640;7.494;2022-12-07T02:39:52;11.30;;;7.78;;
39956;SDS011;48483;44.640;7.494;2022-12-07T02:42:23;11.70;;;7.95;;
39956;SDS011;48483;44.640;7.494;2022-12-07T02:44:56;9.30;;;6.30;;
39956;SDS011;48483;44.640;7.494;2022-12-07T02:47:23;9.27;;;6.72;;
39956;SDS011;48483;44.640;7.494;2022-12-07T02:49:52;9.43;;;7.50;;
39956;SDS011;48483;44.640;7.494;2022-12-07T02:52:19;10.23;;;7.55;;
39956;SDS011;48483;44.640;7.494;2022-12-07T02:54:45;11.00;;;7.25;;
39956;SDS011;48483;44.640;7.494;2022-12-07T02:57:17;9.55;;;7.13;;
39956;SDS011;48483;44.640;7.494;2022-12-07T03:00:06;8.27;;;6.93;;
39956;SDS011;48483;44.640;7.494;2022-12-07T03:02:37;8.23;;;6.22;;
39956;SDS011;48483;44.640;7.494;2022-12-07T03:05:17;8.85;;;7.13;;
39956;SDS011;48483;44.640;7.494;2022-12-07T03:07:55;9.20;;;6.85;;
39956;SDS011;48483;44.640;7.494;2022-12-07T03:10:28;8.50;;;6.68;;
39956;SDS011;48483;44.640;7.494;2022-12-07T03:13:04;9.07;;;7.25;;
39956;SDS011;48483;44.640;7.494;2022-12-07T03:15:38;10.73;;;7.53;;
39956;SDS011;48483;44.640;7.494;2022-12-07T03:18:09;9.25;;;7.50;;
39956;SDS011;48483;44.640;7.494;2022-12-07T03:20:41;10.43;;;7.82;;
39956;SDS011;48483;44.640;7.494;2022-12-07T03:23:10;10.25;;;7.65;;
39956;SDS011;48483;44.640;7.494;2022-12-07T03:25:40;11.77;;;8.57;;
39956;SDS011;48483;44.640;7.494;2022-12-07T03:28:12;11.25;;;8.65;;
39956;SDS011;48483;44.640;7.494;2022-12-07T03:30:44;14.10;;;9.70;;
39956;SDS011;48483;44.640;7.494;2022-12-07T03:33:16;11.02;;;9.05;;
39956;SDS011;48483;44.640;7.494;2022-12-07T03:35:48;11.35;;;9.02;;
39956;SDS011;48483;44.640;7.494;2022-12-07T03:38:20;12.00;;;9.50;;
39956;SDS011;48483;44.640;7.494;2022-12-07T03:40:50;13.38;;;10.27;;
39956;SDS011;48483;44.640;7.494;2022-12-07T03:43:23;11.70;;;8.90;;
39956;SDS011;48483;44.640;7.494;2022-12-07T03:45:53;12.15;;;9.25;;
39956;SDS011;48483;44.640;7.494;2022-12-07T03:48:27;11.38;;;8.93;;
39956;SDS011;48483;44.640;7.494;2022-12-07T03:51:02;11.63;;;9.38;;
39956;SDS011;48483;44.640;7.494;2022-12-07T03:53:39;12.15;;;8.77;;
39956;SDS011;48483;44.640;7.494;2022-12-07T03:56:10;12.63;;;8.18;;
39956;SDS011;48483;44.640;7.494;2022-12-07T03:58:38;11.32;;;8.82;;
39956;SDS011;48483;44.640;7.494;2022-12-07T04:01:08;11.55;;;7.85;;
39956;SDS011;48483;44.640;7.494;2022-12-07T04:03:36;9.40;;;6.43;;
39956;SDS011;48483;44.640;7.494;2022-12-07T04:06:03;11.70;;;8.38;;
39956;SDS011;48483;44.640;7.494;2022-12-07T04:08:30;10.93;;;8.55;;
39956;SDS011;48483;44.640;7.494;2022-12-07T04:10:56;10.85;;;8.63;;
39956;SDS011;48483;44.640;7.494;2022-12-07T04:13:23;13.05;;;8.77;;
39956;SDS011;48483;44.640;7.494;2022-12-07T04:15:50;10.13;;;8.20;;
39956;SDS011;48483;44.640;7.494;2022-12-07T04:18:17;10.30;;;8.25;;
39956;SDS011;48483;44.640;7.494;2022-12-07T04:20:45;11.20;;;8.27;;
39956;SDS011;48483;44.640;7.494;2022-12-07T04:23:12;9.57;;;6.90;;
39956;SDS011;48483;44.640;7.494;2022-12-07T04:25:38;10.18;;;7.82;;
39956;SDS011;48483;44.640;7.494;2022-12-07T04:28:06;9.25;;;7.05;;
39956;SDS011;48483;44.640;7.494;2022-12-07T04:30:32;9.27;;;7.22;;
39956;SDS011;48483;44.640;7.494;2022-12-07T04:32:59;10.57;;;6.60;;
39956;SDS011;48483;44.640;7.494;2022-12-07T04:35:27;10.00;;;7.03;;
39956;SDS011;48483;44.640;7.494;2022-12-07T04:37:54;9.23;;;7.18;;
39956;SDS011;48483;44.640;7.494;2022-12-07T04:40:20;9.00;;;5.75;;
39956;SDS011;48483;44.640;7.494;2022-12-07T04:42:47;8.10;;;5.60;;
39956;SDS011;48483;44.640;7.494;2022-12-07T04:45:13;9.10;;;6.15;;
39956;SDS011;48483;44.640;7.494;2022-12-07T04:47:40;7.32;;;4.97;;
39956;SDS011;48483;44.640;7.494;2022-12-07T04:50:08;7.28;;;5.78;;
39956;SDS011;48483;44.640;7.494;2022-12-07T04:52:37;7.40;;;5.28;;
39956;SDS011;48483;44.640;7.494;2022-12-07T04:55:04;9.70;;;6.70;;
39956;SDS011;48483;44.640;7.494;2022-12-07T04:57:30;10.15;;;6.53;;
39956;SDS011;48483;44.640;7.494;2022-12-07T04:59:57;11.15;;;7.55;;
39956;SDS011;48483;44.640;7.494;2022-12-07T05:02:24;11.30;;;6.53;;
39956;SDS011;48483;44.640;7.494;2022-12-07T05:04:50;8.88;;;6.88;;
39956;SDS011;48483;44.640;7.494;2022-12-07T05:07:17;11.88;;;6.80;;
39956;SDS011;48483;44.640;7.494;2022-12-07T05:09:45;9.52;;;7.25;;
39956;SDS011;48483;44.640;7.494;2022-12-07T05:12:12;10.43;;;7.63;;
39956;SDS011;48483;44.640;7.494;2022-12-07T05:14:39;8.75;;;7.18;;
39956;SDS011;48483;44.640;7.494;2022-12-07T05:17:05;9.40;;;7.07;;
39956;SDS011;48483;44.640;7.494;2022-12-07T05:19:32;10.30;;;7.60;;
39956;SDS011;48483;44.640;7.494;2022-12-07T05:21:58;9.73;;;7.45;;
39956;SDS011;48483;44.640;7.494;2022-12-07T05:24:25;10.60;;;8.43;;
39956;SDS011;48483;44.640;7.494;2022-12-07T05:26:53;12.57;;;8.18;;
39956;SDS011;48483;44.640;7.494;2022-12-07T05:29:20;10.18;;;8.35;;
39956;SDS011;48483;44.640;7.494;2022-12-07T05:31:46;12.32;;;9.23;;
39956;SDS011;48483;44.640;7.494;2022-12-07T05:34:13;10.50;;;8.25;;
39956;SDS011;48483;44.640;7.494;2022-12-07T05:36:40;12.13;;;9.07;;
39956;SDS011;48483;44.640;7.494;2022-12-07T05:39:06;11.95;;;8.85;;
39956;SDS011;48483;44.640;7.494;2022-12-07T05:41:33;11.50;;;7.80;;
39956;SDS011;48483;44.640;7.494;2022-12-07T05:44:19;10.38;;;7.47;;
39956;SDS011;48483;44.640;7.494;2022-12-07T05:46:46;10.75;;;8.27;;
39956;SDS011;48483;44.640;7.494;2022-12-07T05:49:13;16.42;;;11.45;;
39956;SDS011;48483;44.640;7.494;2022-12-07T05:51:39;13.90;;;9.25;;
39956;SDS011;48483;44.640;7.494;2022-12-07T05:54:06;12.27;;;9.45;;
39956;SDS011;48483;44.640;7.494;2022-12-07T05:56:32;11.30;;;8.68;;
39956;SDS011;48483;44.640;7.494;2022-12-07T05:58:59;13.13;;;9.48;;
39956;SDS011;48483;44.640;7.494;2022-12-07T06:01:46;14.27;;;9.05;;
39956;SDS011;48483;44.640;7.494;2022-12-07T06:04:12;9.95;;;8.60;;
39956;SDS011;48483;44.640;7.494;2022-12-07T06:06:39;10.55;;;8.13;;
39956;SDS011;48483;44.640;7.494;2022-12-07T06:09:06;12.25;;;8.73;;
39956;SDS011;48483;44.640;7.494;2022-12-07T06:11:32;10.25;;;7.78;;
39956;SDS011;48483;44.640;7.494;2022-12-07T06:14:17;13.57;;;8.52;;
39956;SDS011;48483;44.640;7.494;2022-12-07T06:16:45;13.63;;;8.32;;
39956;SDS011;48483;44.640;7.494;2022-12-07T06:19:12;10.23;;;7.88;;
39956;SDS011;48483;44.640;7.494;2022-12-07T06:21:39;14.75;;;9.27;;
39956;SDS011;48483;44.640;7.494;2022-12-07T06:24:06;12.75;;;8.50;;
39956;SDS011;48483;44.640;7.494;2022-12-07T06:26:33;9.82;;;7.63;;
39956;SDS011;48483;44.640;7.494;2022-12-07T06:28:59;11.90;;;8.02;;
39956;SDS011;48483;44.640;7.494;2022-12-07T06:31:26;12.10;;;8.30;;
39956;SDS011;48483;44.640;7.494;2022-12-07T06:33:58;10.82;;;8.68;;
39956;SDS011;48483;44.640;7.494;2022-12-07T06:36:24;11.38;;;7.47;;
39956;SDS011;48483;44.640;7.494;2022-12-07T06:38:51;13.23;;;7.85;;
39956;SDS011;48483;44.640;7.494;2022-12-07T06:41:18;10.95;;;8.05;;
39956;SDS011;48483;44.640;7.494;2022-12-07T06:43:44;12.60;;;8.15;;
39956;SDS011;48483;44.640;7.494;2022-12-07T06:46:11;11.07;;;8.68;;
39956;SDS011;48483;44.640;7.494;2022-12-07T06:48:38;12.48;;;7.38;;
39956;SDS011;48483;44.640;7.494;2022-12-07T06:51:06;16.88;;;9.40;;
39956;SDS011;48483;44.640;7.494;2022-12-07T06:53:33;11.20;;;7.40;;
39956;SDS011;48483;44.640;7.494;2022-12-07T06:55:59;12.05;;;8.00;;
39956;SDS011;48483;44.640;7.494;2022-12-07T06:58:26;11.88;;;8.23;;
39956;SDS011;48483;44.640;7.494;2022-12-07T07:00:53;14.13;;;9.13;;
39956;SDS011;48483;44.640;7.494;2022-12-07T07:03:20;14.27;;;9.13;;
39956;SDS011;48483;44.640;7.494;2022-12-07T07:05:46;13.85;;;9.00;;
39956;SDS011;48483;44.640;7.494;2022-12-07T07:08:15;13.95;;;9.02;;
39956;SDS011;48483;44.640;7.494;2022-12-07T07:10:42;11.68;;;9.13;;
39956;SDS011;48483;44.640;7.494;2022-12-07T07:13:08;13.35;;;9.13;;
39956;SDS011;48483;44.640;7.494;2022-12-07T07:15:36;15.48;;;11.75;;
39956;SDS011;48483;44.640;7.494;2022-12-07T07:18:04;33.92;;;20.52;;
39956;SDS011;48483;44.640;7.494;2022-12-07T07:20:31;30.25;;;15.38;;
39956;SDS011;48483;44.640;7.494;2022-12-07T07:22:58;20.95;;;14.13;;
39956;SDS011;48483;44.640;7.494;2022-12-07T07:25:26;18.88;;;12.48;;
39956;SDS011;48483;44.640;7.494;2022-12-07T07:27:52;15.07;;;11.13;;
39956;SDS011;48483;44.640;7.494;2022-12-07T07:30:19;14.05;;;10.63;;
39956;SDS011;48483;44.640;7.494;2022-12-07T07:32:46;15.73;;;10.75;;
39956;SDS011;48483;44.640;7.494;2022-12-07T07:35:13;14.68;;;10.48;;
39956;SDS011;48483;44.640;7.494;2022-12-07T07:37:40;15.02;;;9.80;;
39956;SDS011;48483;44.640;7.494;2022-12-07T07:40:07;17.40;;;10.40;;
39956;SDS011;48483;44.640;7.494;2022-12-07T07:42:35;19.20;;;12.43;;
39956;SDS011;48483;44.640;7.494;2022-12-07T07:45:02;23.98;;;16.85;;
39956;SDS011;48483;44.640;7.494;2022-12-07T07:47:30;26.88;;;16.42;;
39956;SDS011;48483;44.640;7.494;2022-12-07T07:49:56;18.90;;;13.05;;
39956;SDS011;48483;44.640;7.494;2022-12-07T07:52:23;23.15;;;13.55;;
39956;SDS011;48483;44.640;7.494;2022-12-07T07:54:50;18.25;;;12.52;;
39956;SDS011;48483;44.640;7.494;2022-12-07T07:57:17;16.73;;;11.32;;
39956;SDS011;48483;44.640;7.494;2022-12-07T07:59:45;17.92;;;12.60;;
39956;SDS011;48483;44.640;7.494;2022-12-07T08:02:13;23.17;;;13.40;;
39956;SDS011;48483;44.640;7.494;2022-12-07T08:04:40;22.95;;;14.55;;
39956;SDS011;48483;44.640;7.494;2022-12-07T08:07:07;24.23;;;15.75;;
39956;SDS011;48483;44.640;7.494;2022-12-07T08:09:34;25.35;;;15.07;;
39956;SDS011;48483;44.640;7.494;2022-12-07T08:12:00;28.73;;;15.88;;
39956;SDS011;48483;44.640;7.494;2022-12-07T08:14:27;25.77;;;16.00;;
39956;SDS011;48483;44.640;7.494;2022-12-07T08:16:56;30.15;;;15.77;;
39956;SDS011;48483;44.640;7.494;2022-12-07T08:19:23;21.98;;;13.82;;
39956;SDS011;48483;44.640;7.494;2022-12-07T08:21:50;30.13;;;19.95;;
39956;SDS011;48483;44.640;7.494;2022-12-07T08:24:16;38.40;;;25.85;;
39956;SDS011;48483;44.640;7.494;2022-12-07T08:26:43;29.05;;;19.45;;
39956;SDS011;48483;44.640;7.494;2022-12-07T08:29:10;26.73;;;16.45;;
39956;SDS011;48483;44.640;7.494;2022-12-07T08:31:36;22.50;;;14.85;;
39956;SDS011;48483;44.640;7.494;2022-12-07T08:34:04;26.38;;;15.57;;
39956;SDS011;48483;44.640;7.494;2022-12-07T08:36:31;20.17;;;14.50;;
39956;SDS011;48483;44.640;7.494;2022-12-07T08:38:58;23.65;;;16.48;;
39956;SDS011;48483;44.640;7.494;2022-12-07T08:41:24;24.77;;;16.38;;
39956;SDS011;48483;44.640;7.494;2022-12-07T08:43:51;20.08;;;15.35;;
39956;SDS011;48483;44.640;7.494;2022-12-07T08:46:18;23.98;;;16.95;;
39956;SDS011;48483;44.640;7.494;2022-12-07T08:48:50;20.95;;;16.10;;
39956;SDS011;48483;44.640;7.494;2022-12-07T08:53:48;18.33;;;14.43;;
39956;SDS011;48483;44.640;7.494;2022-12-07T08:56:15;20.38;;;16.52;;
39956;SDS011;48483;44.640;7.494;2022-12-07T08:58:42;21.13;;;15.32;;
39956;SDS011;48483;44.640;7.494;2022-12-07T09:01:10;21.65;;;15.43;;
39956;SDS011;48483;44.640;7.494;2022-12-07T09:03:37;17.85;;;15.00;;
39956;SDS011;48483;44.640;7.494;2022-12-07T09:06:03;16.92;;;13.95;;
39956;SDS011;48483;44.640;7.494;2022-12-07T09:08:33;21.20;;;14.98;;
39956;SDS011;48483;44.640;7.494;2022-12-07T09:11:04;17.63;;;14.25;;
39956;SDS011;48483;44.640;7.494;2022-12-07T09:13:31;18.35;;;13.52;;
39956;SDS011;48483;44.640;7.494;2022-12-07T09:15:57;19.48;;;14.40;;
39956;SDS011;48483;44.640;7.494;2022-12-07T09:18:24;19.77;;;14.63;;
39956;SDS011;48483;44.640;7.494;2022-12-07T09:20:51;17.75;;;13.90;;
39956;SDS011;48483;44.640;7.494;2022-12-07T09:23:17;18.77;;;13.15;;
39956;SDS011;48483;44.640;7.494;2022-12-07T09:25:45;20.17;;;14.60;;
39956;SDS011;48483;44.640;7.494;2022-12-07T09:28:12;19.25;;;14.35;;
39956;SDS011;48483;44.640;7.494;2022-12-07T09:30:39;21.42;;;15.10;;
39956;SDS011;48483;44.640;7.494;2022-12-07T09:33:10;20.73;;;14.77;;
39956;SDS011;48483;44.640;7.494;2022-12-07T09:35:37;26.27;;;17.15;;
39956;SDS011;48483;44.640;7.494;2022-12-07T09:38:03;25.52;;;19.45;;
39956;SDS011;48483;44.640;7.494;2022-12-07T09:40:30;24.80;;;18.35;;
39956;SDS011;48483;44.640;7.494;2022-12-07T09:43:00;25.92;;;18.92;;
39956;SDS011;48483;44.640;7.494;2022-12-07T09:45:29;25.17;;;19.23;;
39956;SDS011;48483;44.640;7.494;2022-12-07T09:47:59;23.70;;;18.90;;
39956;SDS011;48483;44.640;7.494;2022-12-07T09:50:27;23.17;;;19.13;;
39956;SDS011;48483;44.640;7.494;2022-12-07T09:52:54;27.75;;;19.98;;
39956;SDS011;48483;44.640;7.494;2022-12-07T09:55:33;25.58;;;19.85;;
39956;SDS011;48483;44.640;7.494;2022-12-07T09:58:03;26.67;;;18.95;;
39956;SDS011;48483;44.640;7.494;2022-12-07T10:00:30;22.25;;;18.10;;
39956;SDS011;48483;44.640;7.494;2022-12-07T10:02:57;22.67;;;17.77;;
39956;SDS011;48483;44.640;7.494;2022-12-07T10:05:26;25.00;;;18.08;;
39956;SDS011;48483;44.640;7.494;2022-12-07T10:07:56;27.73;;;18.52;;
39956;SDS011;48483;44.640;7.494;2022-12-07T10:10:24;20.00;;;17.02;;
39956;SDS011;48483;44.640;7.494;2022-12-07T10:12:53;23.00;;;17.60;;
39956;SDS011;48483;44.640;7.494;2022-12-07T10:15:24;15.13;;;12.52;;
39956;SDS011;48483;44.640;7.494;2022-12-07T10:18:16;21.20;;;17.48;;
39956;SDS011;48483;44.640;7.494;2022-12-07T10:21:04;22.52;;;17.35;;
39956;SDS011;48483;44.640;7.494;2022-12-07T10:23:39;26.95;;;17.35;;
39956;SDS011;48483;44.640;7.494;2022-12-07T10:26:21;20.80;;;17.05;;
39956;SDS011;48483;44.640;7.494;2022-12-07T10:28:54;21.05;;;16.17;;
39956;SDS011;48483;44.640;7.494;2022-12-07T10:31:26;27.00;;;18.27;;
39956;SDS011;48483;44.640;7.494;2022-12-07T10:33:53;21.95;;;16.00;;
39956;SDS011;48483;44.640;7.494;2022-12-07T10:36:22;21.77;;;17.08;;
39956;SDS011;48483;44.640;7.494;2022-12-07T10:38:51;22.10;;;16.98;;
39956;SDS011;48483;44.640;7.494;2022-12-07T10:41:19;23.67;;;16.52;;
39956;SDS011;48483;44.640;7.494;2022-12-07T10:43:47;19.45;;;15.25;;
39956;SDS011;48483;44.640;7.494;2022-12-07T10:46:20;22.80;;;16.38;;
39956;SDS011;48483;44.640;7.494;2022-12-07T10:49:04;22.55;;;14.55;;
39956;SDS011;48483;44.640;7.494;2022-12-07T10:51:43;18.42;;;15.55;;
39956;SDS011;48483;44.640;7.494;2022-12-07T10:54:21;18.10;;;14.57;;
39956;SDS011;48483;44.640;7.494;2022-12-07T10:57:01;21.88;;;14.40;;
39956;SDS011;48483;44.640;7.494;2022-12-07T10:59:53;19.58;;;16.10;;
39956;SDS011;48483;44.640;7.494;2022-12-07T11:02:37;19.75;;;15.90;;
39956;SDS011;48483;44.640;7.494;2022-12-07T11:05:17;19.85;;;16.83;;
39956;SDS011;48483;44.640;7.494;2022-12-07T11:07:55;19.08;;;15.23;;
39956;SDS011;48483;44.640;7.494;2022-12-07T11:10:29;19.05;;;14.80;;
39956;SDS011;48483;44.640;7.494;2022-12-07T11:13:11;24.15;;;18.58;;
39956;SDS011;48483;44.640;7.494;2022-12-07T11:15:50;25.95;;;20.88;;
39956;SDS011;48483;44.640;7.494;2022-12-07T11:18:28;21.92;;;17.80;;
39956;SDS011;48483;44.640;7.494;2022-12-07T11:21:04;24.00;;;18.50;;
39956;SDS011;48483;44.640;7.494;2022-12-07T11:23:42;19.88;;;17.00;;
39956;SDS011;48483;44.640;7.494;2022-12-07T11:26:16;25.30;;;18.63;;
39956;SDS011;48483;44.640;7.494;2022-12-07T11:28:59;20.70;;;17.55;;
39956;SDS011;48483;44.640;7.494;2022-12-07T11:31:41;24.13;;;17.55;;
39956;SDS011;48483;44.640;7.494;2022-12-07T11:34:23;20.13;;;16.65;;
39956;SDS011;48483;44.640;7.494;2022-12-07T11:36:55;20.30;;;16.60;;
39956;SDS011;48483;44.640;7.494;2022-12-07T11:39:25;20.58;;;16.50;;
39956;SDS011;48483;44.640;7.494;2022-12-07T11:41:56;21.15;;;16.95;;
39956;SDS011;48483;44.640;7.494;2022-12-07T11:44:31;20.52;;;17.10;;
39956;SDS011;48483;44.640;7.494;2022-12-07T11:47:02;18.45;;;16.25;;
39956;SDS011;48483;44.640;7.494;2022-12-07T11:49:40;21.33;;;17.20;;
39956;SDS011;48483;44.640;7.494;2022-12-07T11:52:12;21.10;;;17.27;;
39956;SDS011;48483;44.640;7.494;2022-12-07T11:54:48;20.05;;;16.73;;
39956;SDS011;48483;44.640;7.494;2022-12-07T11:57:18;22.17;;;17.38;;
39956;SDS011;48483;44.640;7.494;2022-12-07T11:59:49;19.50;;;17.13;;
39956;SDS011;48483;44.640;7.494;2022-12-07T12:02:18;21.27;;;18.00;;
39956;SDS011;48483;44.640;7.494;2022-12-07T12:04:52;18.73;;;16.38;;
39956;SDS011;48483;44.640;7.494;2022-12-07T12:07:23;18.38;;;16.10;;
39956;SDS011;48483;44.640;7.494;2022-12-07T12:09:52;20.45;;;16.08;;
39956;SDS011;48483;44.640;7.494;2022-12-07T12:12:38;20.88;;;17.23;;
39956;SDS011;48483;44.640;7.494;2022-12-07T12:15:23;22.33;;;16.95;;
39956;SDS011;48483;44.640;7.494;2022-12-07T12:21:06;21.63;;;17.85;;
39956;SDS011;48483;44.640;7.494;2022-12-07T12:23:37;22.42;;;18.48;;
39956;SDS011;48483;44.640;7.494;2022-12-07T12:26:13;21.23;;;17.38;;
39956;SDS011;48483;44.640;7.494;2022-12-07T12:28:49;23.23;;;18.17;;
39956;SDS011;48483;44.640;7.494;2022-12-07T12:31:30;20.02;;;16.55;;
39956;SDS011;48483;44.640;7.494;2022-12-07T12:34:01;24.00;;;18.23;;
39956;SDS011;48483;44.640;7.494;2022-12-07T12:36:44;19.90;;;16.88;;
39956;SDS011;48483;44.640;7.494;2022-12-07T12:39:12;20.35;;;16.50;;
39956;SDS011;48483;44.640;7.494;2022-12-07T12:41:57;19.13;;;16.50;;
39956;SDS011;48483;44.640;7.494;2022-12-07T12:47:41;20.58;;;16.90;;
39956;SDS011;48483;44.640;7.494;2022-12-07T12:50:31;22.77;;;16.13;;
39956;SDS011;48483;44.640;7.494;2022-12-07T12:53:01;20.58;;;15.40;;
39956;SDS011;48483;44.640;7.494;2022-12-07T12:58:34;21.38;;;16.23;;
39956;SDS011;48483;44.640;7.494;2022-12-07T13:04:26;19.73;;;15.30;;
39956;SDS011;48483;44.640;7.494;2022-12-07T13:07:12;20.45;;;15.68;;
39956;SDS011;48483;44.640;7.494;2022-12-07T13:10:00;24.13;;;16.92;;
39956;SDS011;48483;44.640;7.494;2022-12-07T13:12:27;21.35;;;15.43;;
39956;SDS011;48483;44.640;7.494;2022-12-07T13:14:57;21.50;;;15.77;;
39956;SDS011;48483;44.640;7.494;2022-12-07T13:20:44;19.00;;;16.38;;
39956;SDS011;48483;44.640;7.494;2022-12-07T13:23:13;17.83;;;15.93;;
39956;SDS011;48483;44.640;7.494;2022-12-07T13:25:48;19.30;;;16.30;;
39956;SDS011;48483;44.640;7.494;2022-12-07T13:28:20;20.70;;;16.25;;
39956;SDS011;48483;44.640;7.494;2022-12-07T13:31:03;23.00;;;17.65;;
39956;SDS011;48483;44.640;7.494;2022-12-07T13:33:41;25.45;;;18.98;;
39956;SDS011;48483;44.640;7.494;2022-12-07T13:36:12;24.52;;;19.90;;
39956;SDS011;48483;44.640;7.494;2022-12-07T13:38:48;26.58;;;20.95;;
39956;SDS011;48483;44.640;7.494;2022-12-07T13:41:18;25.30;;;21.50;;
39956;SDS011;48483;44.640;7.494;2022-12-07T13:43:48;19.75;;;16.35;;
39956;SDS011;48483;44.640;7.494;2022-12-07T13:48:46;21.35;;;17.73;;
39956;SDS011;48483;44.640;7.494;2022-12-07T13:51:17;20.40;;;17.30;;
39956;SDS011;48483;44.640;7.494;2022-12-07T13:53:47;19.42;;;16.70;;
39956;SDS011;48483;44.640;7.494;2022-12-07T13:56:15;20.60;;;16.80;;
39956;SDS011;48483;44.640;7.494;2022-12-07T13:58:43;22.10;;;17.67;;
39956;SDS011;48483;44.640;7.494;2022-12-07T14:01:10;20.52;;;16.30;;
39956;SDS011;48483;44.640;7.494;2022-12-07T14:03:39;20.30;;;16.25;;
39956;SDS011;48483;44.640;7.494;2022-12-07T14:06:07;21.05;;;18.25;;
39956;SDS011;48483;44.640;7.494;2022-12-07T14:09:05;21.25;;;17.20;;
39956;SDS011;48483;44.640;7.494;2022-12-07T14:11:33;20.08;;;17.95;;
39956;SDS011;48483;44.640;7.494;2022-12-07T14:14:02;20.10;;;17.27;;
39956;SDS011;48483;44.640;7.494;2022-12-07T14:16:31;19.35;;;16.90;;
39956;SDS011;48483;44.640;7.494;2022-12-07T14:19:01;19.30;;;17.20;;
39956;SDS011;48483;44.640;7.494;2022-12-07T14:21:30;15.98;;;13.73;;
39956;SDS011;48483;44.640;7.494;2022-12-07T14:24:02;21.13;;;17.27;;
39956;SDS011;48483;44.640;7.494;2022-12-07T14:26:38;23.95;;;17.58;;
39956;SDS011;48483;44.640;7.494;2022-12-07T14:29:21;23.02;;;19.10;;
39956;SDS011;48483;44.640;7.494;2022-12-07T14:31:56;21.77;;;18.73;;
39956;SDS011;48483;44.640;7.494;2022-12-07T14:34:24;22.85;;;17.60;;
39956;SDS011;48483;44.640;7.494;2022-12-07T14:36:51;25.80;;;19.25;;
39956;SDS011;48483;44.640;7.494;2022-12-07T14:39:18;22.52;;;19.42;;
39956;SDS011;48483;44.640;7.494;2022-12-07T14:41:45;21.65;;;18.42;;
39956;SDS011;48483;44.640;7.494;2022-12-07T14:44:18;19.80;;;17.50;;
39956;SDS011;48483;44.640;7.494;2022-12-07T14:46:48;20.88;;;17.98;;
39956;SDS011;48483;44.640;7.494;2022-12-07T14:49:15;21.48;;;18.95;;
39956;SDS011;48483;44.640;7.494;2022-12-07T14:51:44;22.58;;;19.52;;
39956;SDS011;48483;44.640;7.494;2022-12-07T14:54:13;22.92;;;17.88;;
39956;SDS011;48483;44.640;7.494;2022-12-07T14:56:42;26.23;;;20.55;;
39956;SDS011;48483;44.640;7.494;2022-12-07T14:59:09;27.77;;;21.38;;
39956;SDS011;48483;44.640;7.494;2022-12-07T15:01:38;22.80;;;18.85;;
39956;SDS011;48483;44.640;7.494;2022-12-07T15:04:05;24.75;;;21.25;;
39956;SDS011;48483;44.640;7.494;2022-12-07T15:06:32;28.00;;;21.40;;
39956;SDS011;48483;44.640;7.494;2022-12-07T15:08:59;25.85;;;21.45;;